sensor_id;sensor_type;location;lat;lon;timestamp;noise_LAeq;noise_LA_min;noise_LA_max;noise_LA01;noise_LA95
45478;Laerm;31227;47.986;11.868;2023-03-07T07:27:31;40.25;36.10;54.66;;
45478;Laerm;31227;47.986;11.868;2023-03-07T07:29:59;41.02;36.20;48.48;;
45478;Laerm;31227;47.986;11.868;2023-03-07T07:32:27;41.52;35.31;49.62;;
45478;Laerm;31227;47.986;11.868;2023-03-07T07:34:52;40.13;36.20;44.11;;
45478;Laerm;31227;47.986;11.868;2023-03-07T07:37:18;41.83;36.69;59.86;;
45478;Laerm;31227;47.986;11.868;2023-03-07T07:39:43;41.20;37.52;47.84;;
45478;Laerm;31227;47.986;11.868;2023-03-07T07:42:12;41.05;37.88;46.33;;
45478;Laerm;31227;47.986;11.868;2023-03-07T07:44:45;41.25;37.12;49.15;;
45478;Laerm;31227;47.986;11.868;2023-03-07T07:58:50;45.52;42.03;58.85;;
45478;Laerm;31227;47.986;11.868;2023-03-07T08:01:17;47.95;42.53;72.52;;
45478;Laerm;31227;47.986;11.868;2023-03-07T08:03:42;48.09;46.18;58.11;;
45478;Laerm;31227;47.986;11.868;2023-03-07T08:06:08;48.02;46.15;56.02;;
45478;Laerm;31227;47.986;11.868;2023-03-07T08:08:52;47.99;45.97;50.05;;
45478;Laerm;31227;47.986;11.868;2023-03-07T08:11:18;47.67;45.51;55.96;;
45478;Laerm;31227;47.986;11.868;2023-03-07T08:21:29;47.85;45.86;61.03;;
45478;Laerm;31227;47.986;11.868;2023-03-07T08:23:55;48.98;45.77;73.01;;
45478;Laerm;31227;47.986;11.868;2023-03-07T08:26:25;47.50;45.86;51.17;;
45478;Laerm;31227;47.986;11.868;2023-03-07T08:28:50;47.67;45.77;51.15;;
45478;Laerm;31227;47.986;11.868;2023-03-07T08:31:17;48.14;46.08;57.27;;
45478;Laerm;31227;47.986;11.868;2023-03-07T08:33:43;48.00;46.10;51.76;;
45478;Laerm;31227;47.986;11.868;2023-03-07T08:36:09;48.06;46.20;55.19;;
45478;Laerm;31227;47.986;11.868;2023-03-07T08:38:35;47.91;46.18;53.20;;
45478;Laerm;31227;47.986;11.868;2023-03-07T08:41:01;48.08;46.20;59.57;;
45478;Laerm;31227;47.986;11.868;2023-03-07T08:43:28;48.30;46.28;52.35;;
45478;Laerm;31227;47.986;11.868;2023-03-07T08:45:53;48.17;46.43;50.46;;
45478;Laerm;31227;47.986;11.868;2023-03-07T08:48:19;48.50;46.82;54.71;;
45478;Laerm;31227;47.986;11.868;2023-03-07T08:53:52;48.45;46.71;51.62;;
45478;Laerm;31227;47.986;11.868;2023-03-07T08:59:27;48.39;46.73;53.67;;
45478;Laerm;31227;47.986;11.868;2023-03-07T09:02:05;48.88;46.95;64.33;;
45478;Laerm;31227;47.986;11.868;2023-03-07T09:04:31;48.82;47.00;51.35;;
45478;Laerm;31227;47.986;11.868;2023-03-07T09:06:56;48.85;47.10;53.30;;
45478;Laerm;31227;47.986;11.868;2023-03-07T09:09:22;48.53;44.80;63.97;;
45478;Laerm;31227;47.986;11.868;2023-03-07T09:11:47;45.90;44.31;53.12;;
45478;Laerm;31227;47.986;11.868;2023-03-07T10:09:45;49.71;44.73;76.61;;
45478;Laerm;31227;47.986;11.868;2023-03-07T10:18:01;49.26;46.76;64.92;;
45478;Laerm;31227;47.986;11.868;2023-03-07T10:32:06;41.14;36.34;57.47;;
45478;Laerm;31227;47.986;11.868;2023-03-07T10:34:36;41.20;36.91;56.35;;
45478;Laerm;31227;47.986;11.868;2023-03-07T10:37:03;40.66;36.69;46.78;;
45478;Laerm;31227;47.986;11.868;2023-03-07T10:42:12;41.44;36.69;50.91;;
45478;Laerm;31227;47.986;11.868;2023-03-07T10:44:37;41.25;36.20;50.77;;
45478;Laerm;31227;47.986;11.868;2023-03-07T10:47:03;41.55;36.20;52.03;;
45478;Laerm;31227;47.986;11.868;2023-03-07T10:49:33;41.09;36.20;46.69;;
45478;Laerm;31227;47.986;11.868;2023-03-07T10:54:45;41.26;36.91;48.36;;
45478;Laerm;31227;47.986;11.868;2023-03-07T10:57:15;41.01;36.91;51.50;;
45478;Laerm;31227;47.986;11.868;2023-03-07T10:59:44;42.23;37.12;58.90;;
45478;Laerm;31227;47.986;11.868;2023-03-07T11:02:30;42.02;37.32;52.44;;
45478;Laerm;31227;47.986;11.868;2023-03-07T11:04:58;41.80;36.91;56.86;;
45478;Laerm;31227;47.986;11.868;2023-03-07T11:07:28;41.20;36.69;49.94;;
45478;Laerm;31227;47.986;11.868;2023-03-07T11:09:54;41.38;36.91;51.06;;
45478;Laerm;31227;47.986;11.868;2023-03-07T11:12:20;41.63;36.45;52.42;;
45478;Laerm;31227;47.986;11.868;2023-03-07T11:14:47;41.09;36.69;47.42;;
45478;Laerm;31227;47.986;11.868;2023-03-07T11:17:20;40.54;36.91;46.45;;
45478;Laerm;31227;47.986;11.868;2023-03-07T11:19:46;41.91;36.91;49.12;;
45478;Laerm;31227;47.986;11.868;2023-03-07T11:22:16;42.17;36.69;56.05;;
45478;Laerm;31227;47.986;11.868;2023-03-07T11:24:46;41.47;36.91;54.54;;
45478;Laerm;31227;47.986;11.868;2023-03-07T11:27:19;41.22;37.12;48.02;;
45478;Laerm;31227;47.986;11.868;2023-03-07T11:29:44;41.60;36.91;50.47;;
45478;Laerm;31227;47.986;11.868;2023-03-07T11:32:21;42.30;37.32;53.53;;
45478;Laerm;31227;47.986;11.868;2023-03-07T11:35:06;41.16;36.91;47.70;;
45478;Laerm;31227;47.986;11.868;2023-03-07T11:37:42;42.73;37.32;56.64;;
45478;Laerm;31227;47.986;11.868;2023-03-07T11:42:40;42.92;37.52;54.09;;
45478;Laerm;31227;47.986;11.868;2023-03-07T11:50:36;41.43;37.32;49.57;;
45478;Laerm;31227;47.986;11.868;2023-03-07T11:56:01;42.07;37.52;51.84;;
45478;Laerm;31227;47.986;11.868;2023-03-07T11:58:53;41.81;37.12;48.49;;
45478;Laerm;31227;47.986;11.868;2023-03-07T12:01:27;41.77;35.94;49.49;;
45478;Laerm;31227;47.986;11.868;2023-03-07T12:04:05;42.28;37.12;56.27;;
45478;Laerm;31227;47.986;11.868;2023-03-07T12:09:19;41.75;36.91;54.01;;
45478;Laerm;31227;47.986;11.868;2023-03-07T12:22:06;41.05;36.91;48.57;;
45478;Laerm;31227;47.986;11.868;2023-03-07T12:24:58;42.01;36.20;54.73;;
45478;Laerm;31227;47.986;11.868;2023-03-07T12:27:29;42.09;37.12;54.68;;
45478;Laerm;31227;47.986;11.868;2023-03-07T12:29:58;41.60;37.12;51.67;;
45478;Laerm;31227;47.986;11.868;2023-03-07T12:32:26;41.44;36.69;47.74;;
45478;Laerm;31227;47.986;11.868;2023-03-07T12:34:56;41.43;36.91;49.57;;
45478;Laerm;31227;47.986;11.868;2023-03-07T12:37:31;41.97;36.69;53.44;;
45478;Laerm;31227;47.986;11.868;2023-03-07T12:39:58;41.80;36.69;54.34;;
45478;Laerm;31227;47.986;11.868;2023-03-07T12:43:13;43.00;36.91;64.22;;
45478;Laerm;31227;47.986;11.868;2023-03-07T12:45:11;41.05;36.69;50.19;;
45478;Laerm;31227;47.986;11.868;2023-03-07T12:50:26;41.85;36.69;52.85;;
45478;Laerm;31227;47.986;11.868;2023-03-07T12:52:55;41.79;37.32;53.27;;
45478;Laerm;31227;47.986;11.868;2023-03-07T12:55:33;41.73;37.32;49.73;;
45478;Laerm;31227;47.986;11.868;2023-03-07T12:58:05;40.84;36.69;52.78;;
45478;Laerm;31227;47.986;11.868;2023-03-07T13:00:31;41.59;36.91;54.56;;
45478;Laerm;31227;47.986;11.868;2023-03-07T13:03:00;41.50;37.12;54.54;;
45478;Laerm;31227;47.986;11.868;2023-03-07T13:05:26;41.29;36.20;54.52;;
45478;Laerm;31227;47.986;11.868;2023-03-07T13:07:51;42.16;36.45;63.70;;
45478;Laerm;31227;47.986;11.868;2023-03-07T13:10:18;41.44;36.69;51.13;;
45478;Laerm;31227;47.986;11.868;2023-03-07T13:12:44;41.80;36.69;58.27;;
45478;Laerm;31227;47.986;11.868;2023-03-07T13:27:44;41.14;36.91;49.46;;
45478;Laerm;31227;47.986;11.868;2023-03-07T13:40:23;41.12;36.45;47.88;;
45478;Laerm;31227;47.986;11.868;2023-03-07T13:42:48;41.78;36.69;56.71;;
45478;Laerm;31227;47.986;11.868;2023-03-07T13:47:57;42.33;37.12;53.35;;
45478;Laerm;31227;47.986;11.868;2023-03-07T13:53:00;41.22;37.32;48.45;;
45478;Laerm;31227;47.986;11.868;2023-03-07T13:55:28;42.27;37.12;55.58;;
45478;Laerm;31227;47.986;11.868;2023-03-07T13:57:54;41.01;37.12;47.84;;
45478;Laerm;31227;47.986;11.868;2023-03-07T14:00:21;42.54;37.12;58.33;;
45478;Laerm;31227;47.986;11.868;2023-03-07T14:02:47;41.38;36.91;50.62;;
45478;Laerm;31227;47.986;11.868;2023-03-07T14:05:13;41.65;36.91;51.77;;
45478;Laerm;31227;47.986;11.868;2023-03-07T14:07:38;41.66;36.91;46.80;;
45478;Laerm;31227;47.986;11.868;2023-03-07T14:17:46;40.84;36.98;51.11;;
45478;Laerm;31227;47.986;11.868;2023-03-07T14:25:46;41.51;36.69;48.34;;
45478;Laerm;31227;47.986;11.868;2023-03-07T14:30:54;42.44;37.12;52.44;;
45478;Laerm;31227;47.986;11.868;2023-03-07T14:33:20;41.40;36.91;53.75;;
45478;Laerm;31227;47.986;11.868;2023-03-07T14:35:45;41.61;36.20;53.44;;
45478;Laerm;31227;47.986;11.868;2023-03-07T14:38:18;40.88;36.45;46.28;;
45478;Laerm;31227;47.986;11.868;2023-03-07T14:40:48;42.19;37.17;55.31;;
45478;Laerm;31227;47.986;11.868;2023-03-07T14:50:49;41.23;36.77;50.82;;
45478;Laerm;31227;47.986;11.868;2023-03-07T14:53:19;41.04;36.91;46.52;;
45478;Laerm;31227;47.986;11.868;2023-03-07T14:55:46;41.03;37.12;49.49;;
45478;Laerm;31227;47.986;11.868;2023-03-07T14:58:20;41.34;37.12;45.39;;
45478;Laerm;31227;47.986;11.868;2023-03-07T15:00:55;40.98;36.69;44.47;;
45478;Laerm;31227;47.986;11.868;2023-03-07T15:03:20;41.25;36.69;45.63;;
45478;Laerm;31227;47.986;11.868;2023-03-07T15:05:52;42.12;37.12;53.56;;
45478;Laerm;31227;47.986;11.868;2023-03-07T15:08:26;41.03;36.45;51.91;;
45478;Laerm;31227;47.986;11.868;2023-03-07T15:15:51;41.70;37.70;47.22;;
45478;Laerm;31227;47.986;11.868;2023-03-07T15:18:27;41.68;37.12;52.52;;
45478;Laerm;31227;47.986;11.868;2023-03-07T15:20:53;41.94;37.12;50.42;;
45478;Laerm;31227;47.986;11.868;2023-03-07T15:23:20;40.94;37.12;44.58;;
45478;Laerm;31227;47.986;11.868;2023-03-07T15:25:46;40.99;37.12;45.83;;
45478;Laerm;31227;47.986;11.868;2023-03-07T15:28:16;41.66;37.70;48.90;;
45478;Laerm;31227;47.986;11.868;2023-03-07T15:30:41;41.97;37.35;55.98;;
45478;Laerm;31227;47.986;11.868;2023-03-07T15:33:11;40.90;37.12;45.36;;
45478;Laerm;31227;47.986;11.868;2023-03-07T15:35:37;41.16;36.91;48.00;;
45478;Laerm;31227;47.986;11.868;2023-03-07T15:38:07;41.09;36.91;46.28;;
45478;Laerm;31227;47.986;11.868;2023-03-07T15:40:38;41.48;37.12;47.93;;
45478;Laerm;31227;47.986;11.868;2023-03-07T15:45:33;41.45;36.69;48.09;;
45478;Laerm;31227;47.986;11.868;2023-03-07T15:51:01;41.47;35.94;49.34;;
45478;Laerm;31227;47.986;11.868;2023-03-07T15:53:32;41.20;36.69;46.30;;
45478;Laerm;31227;47.986;11.868;2023-03-07T15:56:03;41.19;36.45;47.88;;
45478;Laerm;31227;47.986;11.868;2023-03-07T15:58:29;41.19;36.45;47.08;;
45478;Laerm;31227;47.986;11.868;2023-03-07T16:01:04;42.78;36.20;58.39;;
45478;Laerm;31227;47.986;11.868;2023-03-07T16:03:31;53.33;36.91;78.55;;
45478;Laerm;31227;47.986;11.868;2023-03-07T16:05:57;41.23;36.45;48.73;;
45478;Laerm;31227;47.986;11.868;2023-03-07T16:08:23;41.32;37.52;45.39;;
45478;Laerm;31227;47.986;11.868;2023-03-07T16:10:49;41.06;37.32;45.36;;
45478;Laerm;31227;47.986;11.868;2023-03-07T18:45:15;39.48;34.69;45.36;;
45478;Laerm;31227;47.986;11.868;2023-03-07T18:47:46;39.11;35.04;45.60;;
45478;Laerm;31227;47.986;11.868;2023-03-07T18:50:15;38.95;35.04;45.72;;
45478;Laerm;31227;47.986;11.868;2023-03-07T18:52:46;39.14;34.31;44.03;;
45478;Laerm;31227;47.986;11.868;2023-03-07T18:55:12;50.74;35.04;75.80;;
45478;Laerm;31227;47.986;11.868;2023-03-07T18:57:37;39.37;35.36;45.23;;
45478;Laerm;31227;47.986;11.868;2023-03-07T19:00:03;39.40;35.36;43.81;;
45478;Laerm;31227;47.986;11.868;2023-03-07T19:02:29;39.38;35.04;43.94;;
45478;Laerm;31227;47.986;11.868;2023-03-07T19:04:57;39.25;35.04;45.70;;
45478;Laerm;31227;47.986;11.868;2023-03-07T19:07:22;39.27;35.36;44.95;;
45478;Laerm;31227;47.986;11.868;2023-03-07T19:09:48;39.11;34.69;44.23;;
45478;Laerm;31227;47.986;11.868;2023-03-07T19:12:17;39.41;35.04;44.23;;
45478;Laerm;31227;47.986;11.868;2023-03-07T19:43:08;40.27;35.36;47.55;;
45478;Laerm;31227;47.986;11.868;2023-03-07T19:45:37;39.70;35.94;45.57;;
45478;Laerm;31227;47.986;11.868;2023-03-07T19:48:03;39.54;36.20;43.99;;
45478;Laerm;31227;47.986;11.868;2023-03-07T19:50:28;39.75;35.94;45.51;;
45478;Laerm;31227;47.986;11.868;2023-03-07T19:52:54;39.52;35.94;44.35;;
45478;Laerm;31227;47.986;11.868;2023-03-07T19:55:21;39.22;35.66;43.44;;
45478;Laerm;31227;47.986;11.868;2023-03-07T19:57:46;39.68;35.94;46.07;;
45478;Laerm;31227;47.986;11.868;2023-03-07T20:00:11;39.57;36.10;48.12;;
45478;Laerm;31227;47.986;11.868;2023-03-07T20:02:37;39.51;35.36;45.20;;
45478;Laerm;31227;47.986;11.868;2023-03-07T20:16:55;39.83;35.94;48.43;;
45478;Laerm;31227;47.986;11.868;2023-03-07T20:19:20;39.44;36.20;43.39;;
45478;Laerm;31227;47.986;11.868;2023-03-07T20:24:51;39.87;35.66;46.45;;
45478;Laerm;31227;47.986;11.868;2023-03-07T20:27:16;39.75;35.94;44.87;;
45478;Laerm;31227;47.986;11.868;2023-03-07T20:29:49;39.41;36.10;43.54;;
45478;Laerm;31227;47.986;11.868;2023-03-07T20:32:14;39.99;35.94;45.51;;
45478;Laerm;31227;47.986;11.868;2023-03-07T20:34:40;40.11;36.45;50.91;;
45478;Laerm;31227;47.986;11.868;2023-03-07T20:37:05;39.80;35.04;45.72;;
45478;Laerm;31227;47.986;11.868;2023-03-07T20:39:30;39.80;35.94;48.61;;
45478;Laerm;31227;47.986;11.868;2023-03-07T20:41:55;39.33;35.94;43.81;;
45478;Laerm;31227;47.986;11.868;2023-03-07T20:44:21;39.64;36.45;47.34;;
45478;Laerm;31227;47.986;11.868;2023-03-07T20:46:46;39.13;35.36;43.54;;
45478;Laerm;31227;47.986;11.868;2023-03-07T20:49:12;39.38;36.20;45.80;;
45478;Laerm;31227;47.986;11.868;2023-03-07T20:51:38;39.31;35.36;44.35;;
45478;Laerm;31227;47.986;11.868;2023-03-07T20:54:08;39.45;35.94;45.20;;
45478;Laerm;31227;47.986;11.868;2023-03-07T20:56:35;39.38;35.66;43.68;;
45478;Laerm;31227;47.986;11.868;2023-03-07T20:59:00;39.34;35.36;44.15;;
45478;Laerm;31227;47.986;11.868;2023-03-07T21:01:26;39.25;35.66;45.07;;
45478;Laerm;31227;47.986;11.868;2023-03-07T21:03:52;39.81;35.66;44.80;;
45478;Laerm;31227;47.986;11.868;2023-03-07T21:06:18;39.57;35.36;44.65;;
45478;Laerm;31227;47.986;11.868;2023-03-07T21:08:44;39.57;36.20;44.27;;
45478;Laerm;31227;47.986;11.868;2023-03-07T21:11:12;39.59;35.66;48.48;;
45478;Laerm;31227;47.986;11.868;2023-03-07T21:38:44;39.47;35.66;46.73;;
45478;Laerm;31227;47.986;11.868;2023-03-07T21:41:10;39.08;35.36;45.11;;
45478;Laerm;31227;47.986;11.868;2023-03-07T21:43:36;38.79;35.04;43.29;;
45478;Laerm;31227;47.986;11.868;2023-03-07T21:46:02;39.18;35.04;45.86;;
45478;Laerm;31227;47.986;11.868;2023-03-07T21:48:28;38.74;34.69;46.73;;
45478;Laerm;31227;47.986;11.868;2023-03-07T21:50:53;40.43;34.31;64.72;;
45478;Laerm;31227;47.986;11.868;2023-03-07T21:53:19;38.89;35.04;45.04;;
45478;Laerm;31227;47.986;11.868;2023-03-07T21:55:49;38.29;33.90;43.19;;
45478;Laerm;31227;47.986;11.868;2023-03-07T21:58:15;39.03;34.69;56.18;;
45478;Laerm;31227;47.986;11.868;2023-03-07T22:00:40;38.96;33.90;48.31;;
45478;Laerm;31227;47.986;11.868;2023-03-07T22:03:05;38.42;34.31;45.39;;
45478;Laerm;31227;47.986;11.868;2023-03-07T22:05:31;38.71;34.31;45.89;;
45478;Laerm;31227;47.986;11.868;2023-03-07T22:07:56;37.98;34.31;47.40;;
45478;Laerm;31227;47.986;11.868;2023-03-07T22:10:21;38.17;33.44;43.44;;
